Paso Robles Municipal Airport
KPRB : now visible

Airfield :











YOU CAN JOIN US ON...

 
LOGIN :

Register | Disclaimer

   EN    FR    IT 

 









Legend :    VFR   Marginal VFR   IFR   Intensive IFR   Very Intensive IFR
Visi :
Ceiling :
>= 8 km
>= 3000ft
5 to 8 km
1000 to 3000 ft
1500m to 5 km
500 to 1000 ft
800 to 1500m
200 to 500 ft
< 800m
< 200 ft
Symbols :   Thunderstorms  Fog  Heavy snow  Heavy precipitations  Wind > 20 kt






- Airport Elevation : 840 ft


KPRB - Paso Robles Municipal

CURRENT METAR :
  • 271353Z AUTO 32003KT 6SM BR OVC003 13/11 A3004 RMK AO2 SLP168 T01280106

EXPIRED METARs :
  • 271253Z AUTO 00000KT 9SM OVC004 13/11 A3003 RMK AO2 SLP163 T01280111
  • 271153Z AUTO 00000KT 10SM OVC004 13/11 A3003 RMK AO2 SLP164 T01330111 10150 20128 58005

TAF KPRB
Valid from the 27 at 12:00 until the 28 at 12:00 UTC


271133Z 2712/2812 31004KT P6SM OVC004
FM271600 34004KT P6SM BKN007
FM271700 32005KT P6SM FEW010
FM272200 22012KT P6SM SKC
FM280300 30014G22KT P6SM SKC
FM280700 31012KT P6SM SCT010
FM281000 31008KT P6SM BKN010
KZOA FIR / North America



MET'MAP, your aeronautical weather chart ! - Copyright ORBIFLY December 2007 - Disclaimer

ORBIFLY MET'MAP TEAM :

Programming & Development : Alexandra Zaïnal
Concept & original design : Baudouin d'Aumeries
Assistance for programming : Marc-Olivier Méhu
Technical & hardware support : Manuel Goepfert

Contact : metmap@orbifly.com




SOURCES & CREDITS :

   NOAA       Earth
Advisory